Time;durP1;ratioP1;P1;durP2;ratioP2;P2;SDS_P1;SDS_P2;PMS_P1;PMS_P2;Temp;Humidity;BMP_temperature;BMP_pressure;BME280_temperature;BME280_humidity;BME280_pressure;Samples;Min_cycle;Max_cycle;Signal;HPM_P1;HPM_P2
2021/01/17 00:00:25;;;;;;;32.08;16.25;;;;;;;-1.57;74.39;100585.97;5092097;28;20094;-73
2021/01/17 00:02:52;;;;;;;26.63;15.20;;;;;;;-1.55;74.73;100584.84;5092833;28;20048;-72
2021/01/17 00:05:22;;;;;;;27.48;15.13;;;;;;;-1.50;74.04;100581.81;5089895;28;20068;-72
2021/01/17 00:07:51;;;;;;;31.38;16.60;;;;;;;-1.70;74.77;100575.44;5082854;28;20047;-72
2021/01/17 00:10:20;;;;;;;31.80;15.98;;;;;;;-1.69;75.01;100574.47;5075873;28;20520;-72
2021/01/17 00:12:47;;;;;;;33.80;17.00;;;;;;;-1.51;74.37;100572.94;5092968;28;20048;-72
2021/01/17 00:15:15;;;;;;;32.70;17.77;;;;;;;-1.60;74.79;100572.88;5092590;28;20060;-72
2021/01/17 00:17:43;;;;;;;28.20;15.88;;;;;;;-1.67;75.01;100559.16;5092316;28;20040;-72
2021/01/17 00:20:16;;;;;;;31.53;16.67;;;;;;;-1.95;75.62;100565.97;5092000;28;20137;-72
2021/01/17 00:22:43;;;;;;;27.25;15.73;;;;;;;-2.10;76.28;100567.25;5070250;28;20048;-72
2021/01/17 00:25:12;;;;;;;32.42;18.33;;;;;;;-2.17;77.25;100560.72;5053635;28;20053;-72
2021/01/17 00:27:38;;;;;;;34.28;18.30;;;;;;;-2.29;77.70;100565.25;5053236;28;20044;-72
2021/01/17 00:30:07;;;;;;;35.97;18.00;;;;;;;-2.20;77.52;100569.84;5074861;28;20055;-72
2021/01/17 00:32:33;;;;;;;26.48;15.43;;;;;;;-2.22;76.62;100561.09;5079306;28;20115;-72
2021/01/17 00:34:59;;;;;;;32.33;16.75;;;;;;;-2.12;77.17;100564.72;5092725;28;20131;-72
2021/01/17 00:37:26;;;;;;;27.77;14.95;;;;;;;-2.13;76.19;100562.19;5077565;28;20105;-72
2021/01/17 00:39:52;;;;;;;28.08;15.80;;;;;;;-1.98;75.20;100555.53;5054513;28;20470;-72
2021/01/17 00:42:19;;;;;;;25.73;13.95;;;;;;;-1.64;74.16;100552.72;5089934;28;20099;-72
2021/01/17 00:44:45;;;;;;;22.38;12.25;;;;;;;-1.52;73.23;100554.38;5083448;28;20048;-72
2021/01/17 00:47:13;;;;;;;25.20;14.40;;;;;;;-1.56;72.87;100552.94;5097874;28;20051;-72
2021/01/17 00:49:43;;;;;;;18.08;10.73;;;;;;;-1.51;71.74;100550.72;5096463;28;20070;-72
2021/01/17 00:52:19;;;;;;;21.98;12.55;;;;;;;-1.51;72.99;100548.88;5063252;28;20127;-72
2021/01/17 00:54:47;;;;;;;18.60;10.68;;;;;;;-1.32;70.97;100547.31;5074696;28;20047;-73
2021/01/17 00:57:14;;;;;;;18.75;10.95;;;;;;;-1.30;71.05;100546.19;5074006;28;20040;-73
2021/01/17 00:59:41;;;;;;;18.55;10.25;;;;;;;-1.27;70.31;100543.25;5078889;28;20044;-72
2021/01/17 01:02:09;;;;;;;86.88;57.70;;;;;;;-1.22;69.74;100541.03;5092392;28;20074;-72
2021/01/17 01:04:35;;;;;;;23.65;12.25;;;;;;;-1.26;69.94;100541.44;5091744;28;20043;-72
2021/01/17 01:07:02;;;;;;;21.85;12.52;;;;;;;-1.27;69.79;100535.25;5062079;28;20041;-72
2021/01/17 01:09:28;;;;;;;17.75;10.23;;;;;;;-1.23;69.57;100539.34;5091053;28;20474;-72
2021/01/17 01:11:54;;;;;;;16.23;9.70;;;;;;;-1.21;69.47;100539.22;5090967;28;20059;-72
2021/01/17 01:14:21;;;;;;;18.63;10.23;;;;;;;-1.33;69.98;100537.59;5074227;28;20072;-72
2021/01/17 01:16:51;;;;;;;17.25;9.32;;;;;;;-1.38;69.14;100533.47;5091983;28;20052;-72
2021/01/17 01:19:18;;;;;;;17.83;10.30;;;;;;;-1.44;69.78;100538.53;5090829;28;20130;-72
2021/01/17 01:21:44;;;;;;;15.30;9.55;;;;;;;-1.44;70.08;100522.50;5090614;28;20036;-72
2021/01/17 01:24:11;;;;;;;22.95;10.90;;;;;;;-1.25;69.54;100527.94;5084920;28;20648;-72
2021/01/17 01:26:42;;;;;;;17.83;10.20;;;;;;;-1.30;69.76;100526.63;5073873;28;20043;-72
2021/01/17 01:29:09;;;;;;;17.52;9.98;;;;;;;-1.23;68.94;100512.59;5059911;28;20488;-72
2021/01/17 01:31:37;;;;;;;17.35;9.82;;;;;;;-1.13;68.40;100515.34;5066545;28;20039;-72
2021/01/17 01:34:04;;;;;;;20.95;12.40;;;;;;;-1.27;70.89;100515.69;5090448;28;20055;-72
2021/01/17 01:36:33;;;;;;;14.68;8.68;;;;;;;-1.17;70.02;100509.41;5102659;22;20151;-74
2021/01/17 01:39:00;;;;;;;15.48;9.48;;;;;;;-1.21;68.34;100509.81;5089900;28;20071;-72
2021/01/17 01:41:28;;;;;;;15.90;9.35;;;;;;;-1.18;68.58;100502.38;5072916;28;20436;-76
2021/01/17 01:43:55;;;;;;;15.98;8.93;;;;;;;-1.38;69.04;100495.22;5080858;28;20127;-75
2021/01/17 01:46:23;;;;;;;16.90;8.80;;;;;;;-1.21;68.57;100489.25;5085998;28;20131;-74
2021/01/17 01:48:50;;;;;;;14.88;8.32;;;;;;;-1.12;68.77;100480.44;5073320;28;20131;-75
2021/01/17 01:51:19;;;;;;;14.85;9.07;;;;;;;-1.44;69.37;100480.59;5066581;28;20528;-73
2021/01/17 01:53:46;;;;;;;14.50;8.40;;;;;;;-1.51;69.56;100484.75;5081051;28;20082;-75
2021/01/17 01:56:14;;;;;;;14.07;8.38;;;;;;;-1.64;70.47;100476.09;5090435;28;20048;-75
2021/01/17 01:58:41;;;;;;;13.75;8.52;;;;;;;-1.60;69.52;100477.53;5083769;28;20120;-75
2021/01/17 02:01:07;;;;;;;14.20;8.43;;;;;;;-1.69;70.13;100471.13;5087690;28;20048;-76
2021/01/17 02:03:34;;;;;;;15.68;9.15;;;;;;;-1.74;70.04;100469.88;5073424;28;20048;-75
2021/01/17 02:06:01;;;;;;;14.85;8.50;;;;;;;-1.76;70.38;100471.81;5088369;28;21424;-74
2021/01/17 02:08:52;;;;;;;15.23;8.77;;;;;;;-1.79;70.03;100477.41;5044708;28;20055;-74
2021/01/17 02:11:33;;;;;;;14.35;7.75;;;;;;;-1.77;70.57;100483.47;5066176;28;20525;-74
2021/01/17 02:14:09;;;;;;;16.63;8.90;;;;;;;-1.69;69.87;100486.31;5090552;28;20721;-75
2021/01/17 02:16:38;;;;;;;14.75;8.48;;;;;;;-1.66;70.23;100480.72;5073090;28;20119;-74
2021/01/17 02:19:07;;;;;;;13.57;8.05;;;;;;;-1.69;70.17;100475.63;5072863;28;20131;-73
2021/01/17 02:21:36;;;;;;;14.05;8.43;;;;;;;-1.58;69.91;100472.06;5051771;28;20041;-74
2021/01/17 02:24:11;;;;;;;16.23;8.73;;;;;;;-1.69;69.99;100471.13;5055930;28;20581;-74
2021/01/17 02:26:39;;;;;;;12.57;7.70;;;;;;;-1.53;69.63;100460.00;5073093;28;20043;-74
2021/01/17 02:29:07;;;;;;;14.10;8.02;;;;;;;-1.77;70.04;100467.44;5072643;28;20044;-73
2021/01/17 02:31:35;;;;;;;14.98;8.75;;;;;;;-2.00;70.21;100458.69;5088942;28;20044;-74
2021/01/17 02:34:04;;;;;;;14.00;8.43;;;;;;;-1.98;70.82;100455.91;5056177;28;20134;-74
2021/01/17 02:36:36;;;;;;;15.90;9.73;;;;;;;-2.06;71.19;100462.72;5071934;28;20067;-75
2021/01/17 02:39:15;;;;;;;16.65;9.20;;;;;;;-1.79;70.98;100469.41;5089697;28;20062;-75
2021/01/17 02:41:58;;;;;;;16.27;9.15;;;;;;;-1.75;70.17;100460.16;5090390;28;20505;-72
2021/01/17 02:44:26;;;;;;;16.42;9.90;;;;;;;-1.89;70.65;100469.34;5088654;28;20520;-74
2021/01/17 02:46:53;;;;;;;15.05;9.23;;;;;;;-2.16;71.36;100459.16;5088624;28;20089;-74
2021/01/17 02:49:19;;;;;;;15.90;9.40;;;;;;;-2.36;72.32;100466.16;5047240;28;20052;-74
2021/01/17 02:51:49;;;;;;;17.80;9.93;;;;;;;-2.15;71.84;100463.53;5089608;28;20559;-74
2021/01/17 02:54:21;;;;;;;17.40;8.98;;;;;;;-2.00;71.50;100461.38;5084450;28;20510;-74
2021/01/17 02:56:57;;;;;;;17.65;9.95;;;;;;;-1.92;71.12;100460.72;5073037;28;20051;-74
2021/01/17 02:59:27;;;;;;;14.40;8.80;;;;;;;-2.25;72.17;100462.59;5060111;28;20044;-74
2021/01/17 03:01:55;;;;;;;17.85;10.05;;;;;;;-2.36;72.43;100463.47;5043299;28;20533;-73
2021/01/17 03:04:50;;;;;;;15.50;8.85;;;;;;;-2.29;72.59;100455.81;5093420;28;20052;-73
2021/01/17 03:07:17;;;;;;;18.60;10.20;;;;;;;-2.32;72.19;100458.75;5078567;28;20048;-74
2021/01/17 03:09:44;;;;;;;17.45;9.10;;;;;;;-2.30;72.29;100458.63;5076741;28;20135;-74
2021/01/17 03:12:11;;;;;;;18.98;10.13;;;;;;;-2.43;73.04;100459.66;5076582;28;20047;-73
2021/01/17 03:14:39;;;;;;;16.52;9.50;;;;;;;-2.66;74.29;100462.50;5059930;28;20597;-74
2021/01/17 03:17:06;;;;;;;18.42;10.45;;;;;;;-2.51;73.95;100461.25;5092827;28;20077;-73
2021/01/17 03:19:34;;;;;;;18.70;8.98;;;;;;;-2.61;74.23;100454.97;5076361;28;20131;-74
2021/01/17 03:22:01;;;;;;;18.23;9.40;;;;;;;-2.66;74.21;100451.84;5076163;28;20554;-74
2021/01/17 03:24:27;;;;;;;16.10;8.75;;;;;;;-2.68;74.33;100459.09;5073215;28;20071;-74
2021/01/17 03:26:53;;;;;;;14.70;8.80;;;;;;;-2.65;73.87;100457.03;5076322;28;20067;-74
2021/01/17 03:29:20;;;;;;;14.80;8.63;;;;;;;-2.64;74.03;100450.72;5074647;28;20040;-74
2021/01/17 03:31:46;;;;;;;13.10;8.40;;;;;;;-2.54;73.55;100464.16;5057758;28;20048;-74
2021/01/17 03:34:13;;;;;;;14.82;8.93;;;;;;;-2.63;74.00;100457.75;5093626;28;20549;-74
2021/01/17 03:36:39;;;;;;;17.25;9.13;;;;;;;-2.55;73.44;100459.81;5073322;28;20067;-73
2021/01/17 03:39:06;;;;;;;14.95;9.20;;;;;;;-2.66;73.56;100457.16;5075743;28;20395;-74
2021/01/17 03:41:33;;;;;;;15.68;9.02;;;;;;;-2.54;73.13;100450.84;5093730;28;20062;-74
2021/01/17 03:43:59;;;;;;;15.07;8.50;;;;;;;-2.60;72.96;100451.34;5054262;28;20048;-73
2021/01/17 03:46:30;;;;;;;13.98;7.88;;;;;;;-2.67;72.77;100452.81;5072266;28;20135;-74
2021/01/17 03:48:57;;;;;;;16.73;8.02;;;;;;;-2.68;72.49;100448.44;5074440;28;20134;-74
2021/01/17 03:51:23;;;;;;;14.80;8.40;;;;;;;-2.70;72.46;100452.09;5092686;28;20575;-73
2021/01/17 03:53:50;;;;;;;13.82;8.00;;;;;;;-2.81;72.96;100456.63;5061428;28;20118;-74
2021/01/17 03:56:17;;;;;;;15.82;8.73;;;;;;;-2.71;72.60;100450.38;5045930;28;20437;-74
2021/01/17 03:58:43;;;;;;;15.98;8.80;;;;;;;-2.75;72.70;100456.94;5075940;28;20046;-74
2021/01/17 04:01:10;;;;;;;16.25;8.45;;;;;;;-2.83;72.56;100462.06;5091950;28;20067;-74
2021/01/17 04:03:37;;;;;;;16.05;8.52;;;;;;;-2.79;72.46;100455.53;5093900;28;20093;-74
2021/01/17 04:06:04;;;;;;;16.48;8.82;;;;;;;-2.78;72.29;100453.69;5073034;28;20429;-73
2021/01/17 04:08:31;;;;;;;14.48;8.68;;;;;;;-2.83;71.95;100451.41;5092315;28;20138;-75
2021/01/17 04:10:57;;;;;;;16.13;8.10;;;;;;;-2.94;72.52;100447.91;5093345;28;20127;-76
2021/01/17 04:13:24;;;;;;;16.80;9.20;;;;;;;-2.94;72.83;100447.91;5075284;28;20131;-74
2021/01/17 04:15:51;;;;;;;12.98;7.53;;;;;;;-3.07;73.30;100450.69;5092992;28;20410;-73
2021/01/17 04:18:17;;;;;;;13.32;8.05;;;;;;;-3.09;72.75;100456.16;5092989;28;20050;-75
2021/01/17 04:20:44;;;;;;;14.30;7.63;;;;;;;-2.99;73.00;100458.94;5075150;28;20064;-75
2021/01/17 04:23:10;;;;;;;14.63;8.43;;;;;;;-3.14;73.46;100463.69;5091731;28;20051;-75
2021/01/17 04:25:39;;;;;;;16.63;8.77;;;;;;;-3.12;73.53;100461.72;5067349;28;20056;-74
2021/01/17 04:28:09;;;;;;;13.85;8.52;;;;;;;-3.14;73.56;100454.84;5092413;28;20056;-73
2021/01/17 04:30:36;;;;;;;16.55;8.15;;;;;;;-3.29;73.34;100458.72;5074836;28;20131;-75
2021/01/17 04:33:03;;;;;;;14.75;8.15;;;;;;;-3.20;73.17;100460.66;5058467;28;20052;-75
2021/01/17 04:35:30;;;;;;;13.75;8.05;;;;;;;-3.34;73.82;100455.56;5075163;28;20048;-74
2021/01/17 04:38:00;;;;;;;14.07;7.75;;;;;;;-3.36;73.99;100463.69;5091373;28;20052;-75
2021/01/17 04:40:28;;;;;;;14.88;8.60;;;;;;;-3.39;74.36;100459.44;5091534;28;20525;-73
2021/01/17 04:43:09;;;;;;;14.45;7.88;;;;;;;-3.54;74.33;100458.00;5058175;28;20048;-74
2021/01/17 04:45:37;;;;;;;14.45;7.93;;;;;;;-3.60;74.92;100458.47;5091920;28;20071;-73
2021/01/17 04:48:04;;;;;;;14.20;8.32;;;;;;;-3.72;75.57;100462.09;5069580;28;20048;-73
2021/01/17 04:50:32;;;;;;;14.43;7.63;;;;;;;-3.83;75.83;100460.28;5049316;28;20050;-74
2021/01/17 04:53:04;;;;;;;15.18;7.82;;;;;;;-3.84;74.94;100463.06;5091132;28;20113;-74
2021/01/17 04:55:34;;;;;;;15.40;8.25;;;;;;;-3.84;74.86;100468.38;5084025;28;20540;-73
2021/01/17 04:58:05;;;;;;;15.15;8.07;;;;;;;-3.80;74.30;100475.97;5074507;28;20052;-73
2021/01/17 05:00:32;;;;;;;13.30;7.22;;;;;;;-3.73;74.02;100471.03;5092240;28;20101;-74
2021/01/17 05:03:27;;;;;;;14.25;7.57;;;;;;;-3.75;74.16;100472.97;5041294;28;20131;-74
2021/01/17 05:06:26;;;;;;;13.93;8.23;;;;;;;-3.72;74.31;100468.25;5087691;28;20113;-74
2021/01/17 05:09:06;;;;;;;15.35;7.97;;;;;;;-3.74;73.84;100474.66;5068720;28;20071;-73
2021/01/17 05:11:39;;;;;;;16.77;8.32;;;;;;;-3.75;74.57;100472.97;5091085;28;20071;-74
2021/01/17 05:14:20;;;;;;;12.23;7.05;;;;;;;-3.83;74.28;100470.06;5058234;28;20113;-74
2021/01/17 05:16:47;;;;;;;13.52;7.20;;;;;;;-3.98;74.73;100471.25;5073567;28;20048;-74
2021/01/17 05:19:18;;;;;;;13.73;7.70;;;;;;;-4.00;74.58;100467.84;5058157;28;20081;-74
2021/01/17 05:21:49;;;;;;;13.68;7.47;;;;;;;-4.13;74.80;100465.25;5057658;28;20043;-74
2021/01/17 05:24:18;;;;;;;13.57;7.28;;;;;;;-4.18;74.97;100462.13;5071765;28;20131;-74
2021/01/17 05:26:52;;;;;;;;;;;;;;;-4.23;75.20;100467.78;5090968;28;20126;-73
2021/01/17 05:29:23;;;;;;;13.38;7.63;;;;;;;-4.35;75.44;100463.38;5090781;28;19920;-74
2021/01/17 05:31:57;;;;;;;14.70;7.75;;;;;;;-4.32;76.06;100473.78;5054780;28;20529;-74
2021/01/17 05:34:24;;;;;;;14.32;7.57;;;;;;;-4.35;76.42;100468.69;5033952;28;20055;-73
2021/01/17 05:37:02;;;;;;;11.60;7.05;;;;;;;-4.39;76.34;100467.22;5054951;28;20181;-74
2021/01/17 05:39:29;;;;;;;13.80;7.03;;;;;;;-4.39;77.03;100468.06;5073966;28;20048;-74
2021/01/17 05:42:08;;;;;;;12.98;7.30;;;;;;;-4.43;77.08;100471.06;5073716;28;20040;-74
2021/01/17 05:44:35;;;;;;;14.70;8.25;;;;;;;-4.44;77.54;100466.72;5090316;28;20044;-74
2021/01/17 05:47:12;;;;;;;17.08;8.38;;;;;;;-4.50;78.28;100469.81;5065512;28;20133;-75
2021/01/17 05:49:39;;;;;;;15.32;8.32;;;;;;;-4.47;78.89;100477.56;5084171;28;20172;-74
2021/01/17 05:52:09;;;;;;;14.15;7.68;;;;;;;-4.46;79.68;100466.81;5073632;28;20075;-74
2021/01/17 05:54:36;;;;;;;15.98;8.35;;;;;;;-4.46;80.10;100471.28;5078790;28;20052;-73
2021/01/17 05:57:13;;;;;;;14.55;8.60;;;;;;;-4.36;79.95;100474.97;5063692;28;20506;-74
2021/01/17 05:59:40;;;;;;;13.55;7.82;;;;;;;-4.35;80.17;100479.34;5067956;28;20083;-76
2021/01/17 06:02:21;;;;;;;15.93;9.20;;;;;;;-4.36;79.74;100482.09;5070625;28;20103;-74
2021/01/17 06:04:59;;;;;;;16.35;8.10;;;;;;;-4.33;79.39;100482.72;5042503;28;20581;-75
2021/01/17 06:07:28;;;;;;;16.23;7.87;;;;;;;-4.34;79.76;100485.50;5051173;28;20542;-74
2021/01/17 06:09:57;;;;;;;21.10;8.47;;;;;;;-4.39;79.82;100477.88;5089568;28;20048;-74
2021/01/17 06:12:34;;;;;;;15.15;7.60;;;;;;;-4.40;79.52;100482.34;5071717;28;20052;-75
2021/01/17 06:15:07;;;;;;;19.00;9.18;;;;;;;-4.47;79.98;100481.09;5078697;28;20126;-75
2021/01/17 06:17:35;;;;;;;16.40;8.30;;;;;;;-4.51;79.89;100484.97;5089930;28;20075;-73
2021/01/17 06:20:05;;;;;;;16.27;8.27;;;;;;;-4.51;79.79;100484.13;5056582;28;20078;-74
2021/01/17 06:22:32;;;;;;;;;;;;;;;-4.55;80.03;100493.28;5056565;28;20044;-74
2021/01/17 06:25:04;;;;;;;16.00;7.93;;;;;;;-4.64;80.77;100480.66;5083657;28;19919;-74
2021/01/17 06:27:31;;;;;;;15.93;8.50;;;;;;;-4.64;80.67;100483.31;5056554;28;20051;-74
2021/01/17 06:29:58;;;;;;;16.60;8.85;;;;;;;-4.74;80.88;100477.81;5089993;28;20082;-73
2021/01/17 06:32:30;;;;;;;16.50;8.82;;;;;;;-4.82;80.67;100491.66;5089436;28;20044;-74
2021/01/17 06:34:58;;;;;;;18.42;9.32;;;;;;;-4.99;81.45;100489.38;5089363;28;20421;-74
2021/01/17 06:37:26;;;;;;;17.60;8.82;;;;;;;-5.00;82.04;100486.81;5068542;28;20101;-74
2021/01/17 06:39:54;;;;;;;16.27;8.70;;;;;;;-5.09;81.66;100489.19;5054830;28;20048;-74
2021/01/17 06:42:22;;;;;;;15.93;8.48;;;;;;;-5.16;81.37;100487.91;5052595;28;20045;-74
2021/01/17 06:44:50;;;;;;;14.77;8.55;;;;;;;-4.97;80.41;100486.59;5085640;28;20059;-74
2021/01/17 06:47:17;;;;;;;20.95;9.35;;;;;;;-4.98;80.77;100493.72;5072619;28;20048;-74
2021/01/17 06:49:44;;;;;;;17.40;8.77;;;;;;;-5.04;80.96;100491.50;5074235;28;20442;-72
2021/01/17 06:52:11;;;;;;;16.20;8.15;;;;;;;-4.98;81.04;100498.19;5076332;28;20225;-74
2021/01/17 06:54:41;;;;;;;16.02;8.63;;;;;;;-4.76;80.54;100496.53;5042043;28;20461;-72
2021/01/17 06:57:08;;;;;;;19.58;9.07;;;;;;;-4.68;79.82;100497.78;5088855;28;20048;-74
2021/01/17 06:59:48;;;;;;;16.33;9.65;;;;;;;-4.71;79.99;100498.84;5072665;28;20048;-74
2021/01/17 07:04:56;;;;;;;16.65;8.20;;;;;;;-4.62;78.71;100505.31;5090548;28;20048;-75
2021/01/17 07:07:53;;;;;;;19.42;8.90;;;;;;;-4.64;78.84;100505.44;5075795;28;20083;-73
2021/01/17 07:10:24;;;;;;;18.10;8.70;;;;;;;-4.59;78.62;100505.09;5089507;28;20067;-74
2021/01/17 07:13:03;;;;;;;17.70;8.30;;;;;;;-4.33;77.99;100509.31;5056580;28;20060;-74
2021/01/17 07:15:30;;;;;;;;;;;;;;;-4.03;76.47;100508.00;5090142;28;20047;-74
2021/01/17 07:18:02;;;;;;;15.23;8.25;;;;;;;-3.51;74.62;100515.50;5072515;28;19962;-74
2021/01/17 07:20:35;;;;;;;16.90;8.10;;;;;;;-2.66;70.89;100508.69;5056226;28;20082;-74
2021/01/17 07:23:03;;;;;;;15.50;8.18;;;;;;;-2.29;68.68;100514.53;5072535;28;20098;-74
2021/01/17 07:25:31;;;;;;;13.50;8.40;;;;;;;-1.39;65.89;100504.25;5061046;28;20056;-74
2021/01/17 07:28:07;;;;;;;15.18;8.43;;;;;;;-0.84;63.40;100508.28;5070084;28;20109;-74
2021/01/17 07:30:44;;;;;;;17.70;7.72;;;;;;;-0.70;62.02;100491.84;5088977;28;20478;-74
2021/01/17 07:33:11;;;;;;;12.93;8.00;;;;;;;0.20;59.17;100501.50;5090118;28;20051;-74
2021/01/17 07:35:46;;;;;;;17.15;8.05;;;;;;;0.99;56.29;100499.31;5108794;22;20069;-72
2021/01/17 07:38:29;;;;;;;14.32;7.82;;;;;;;2.11;53.85;100497.16;5086753;28;20468;-75
2021/01/17 07:41:04;;;;;;;13.23;7.50;;;;;;;2.76;50.50;100492.31;5074095;28;20051;-72
2021/01/17 07:43:30;;;;;;;13.13;7.50;;;;;;;3.52;49.03;100497.69;5075922;28;20076;-73
2021/01/17 07:45:59;;;;;;;13.50;7.60;;;;;;;4.12;47.33;100508.28;5086991;28;20041;-73
2021/01/17 07:48:26;;;;;;;14.23;8.10;;;;;;;6.05;42.81;100500.59;5056102;28;20080;-73
2021/01/17 07:50:55;;;;;;;15.05;7.95;;;;;;;6.71;40.34;100500.91;5073132;28;20049;-73
2021/01/17 07:53:26;;;;;;;14.77;8.43;;;;;;;7.38;38.86;100498.97;5054797;28;20056;-74
2021/01/17 07:56:00;;;;;;;15.38;8.15;;;;;;;8.42;35.90;100501.41;5035868;28;20558;-74
2021/01/17 07:58:31;;;;;;;13.13;8.18;;;;;;;9.12;34.75;100498.59;5039050;28;20136;-73
2021/01/17 08:00:58;;;;;;;14.50;8.75;;;;;;;9.20;34.12;100506.63;5055709;28;20055;-73
2021/01/17 08:03:25;;;;;;;13.43;8.13;;;;;;;10.64;31.48;100493.69;5055699;28;20049;-73
2021/01/17 08:05:56;;;;;;;14.55;8.93;;;;;;;10.35;31.61;100497.66;5036204;28;20522;-73
2021/01/17 08:08:34;;;;;;;12.77;8.20;;;;;;;11.55;29.79;100488.25;5062387;28;20049;-74
2021/01/17 08:11:02;;;;;;;13.45;8.48;;;;;;;12.45;27.85;100498.09;5073069;28;20706;-73
2021/01/17 08:13:35;;;;;;;12.35;8.55;;;;;;;12.14;28.34;100493.44;5038909;28;20511;-72
2021/01/17 08:16:11;;;;;;;12.95;8.27;;;;;;;11.97;28.52;100505.97;5071991;28;20104;-73
2021/01/17 08:18:39;;;;;;;15.05;9.15;;;;;;;11.30;29.40;100502.63;5055495;28;20079;-73
2021/01/17 08:21:20;;;;;;;13.85;8.65;;;;;;;10.86;29.63;100497.03;5088520;28;20037;-73
2021/01/17 08:24:09;;;;;;;13.43;9.20;;;;;;;10.11;30.97;100503.63;5069485;28;20419;-73
2021/01/17 08:27:01;;;;;;;13.40;9.07;;;;;;;9.30;32.38;100512.53;5045918;28;20048;-72
2021/01/17 08:29:27;;;;;;;15.38;9.98;;;;;;;8.76;33.50;100511.53;5073127;28;20068;-73
2021/01/17 08:31:53;;;;;;;21.63;9.90;;;;;;;8.25;34.32;100517.09;5089844;28;20051;-72
2021/01/17 08:34:25;;;;;;;13.68;9.10;;;;;;;10.48;30.78;100505.81;5074349;28;20052;-73
2021/01/17 08:36:52;;;;;;;15.13;9.32;;;;;;;10.57;29.98;100501.84;5051218;28;20091;-73
2021/01/17 08:39:42;;;;;;;13.70;9.52;;;;;;;11.59;28.64;100508.63;5073216;28;20048;-73
2021/01/17 08:42:27;;;;;;;;;;;;;;;12.68;26.81;100508.44;5072184;28;20418;-72
2021/01/17 08:44:54;;;;;;;13.60;9.07;;;;;;;12.74;26.38;100507.56;5058678;28;19920;-70
2021/01/17 08:47:21;;;;;;;12.32;8.80;;;;;;;14.20;24.23;100506.78;5071322;28;20048;-71
2021/01/17 08:49:49;;;;;;;11.95;8.88;;;;;;;14.25;23.66;100496.78;5055079;28;20044;-71
2021/01/17 08:52:30;;;;;;;11.30;8.80;;;;;;;14.39;23.50;100508.38;5053689;28;20062;-71
2021/01/17 08:54:56;;;;;;;14.10;9.13;;;;;;;14.45;23.09;100499.25;5070898;28;20048;-71
2021/01/17 08:57:42;;;;;;;13.02;9.15;;;;;;;13.44;24.30;100515.53;5071143;28;20128;-71
2021/01/17 09:00:11;;;;;;;13.98;9.35;;;;;;;14.86;22.32;100505.78;5054744;28;20048;-71
2021/01/17 09:02:38;;;;;;;13.65;9.57;;;;;;;15.86;21.07;100505.59;5070819;28;20040;-71
2021/01/17 09:05:16;;;;;;;12.75;9.18;;;;;;;14.69;22.11;100517.44;5070987;28;20086;-71
2021/01/17 09:07:43;;;;;;;13.30;8.75;;;;;;;15.92;20.96;100510.97;5041143;28;20403;-70
2021/01/17 09:10:13;;;;;;;13.95;10.00;;;;;;;14.91;22.39;100517.69;5054431;28;20074;-71
2021/01/17 09:12:39;;;;;;;11.80;9.38;;;;;;;15.76;21.43;100522.69;5054088;28;20128;-72
2021/01/17 09:15:19;;;;;;;11.00;9.27;;;;;;;15.92;20.81;100521.13;5070802;28;20052;-72
2021/01/17 09:17:59;;;;;;;17.38;9.70;;;;;;;16.67;20.06;100524.50;5054039;28;20040;-71
2021/01/17 09:20:27;;;;;;;13.93;9.68;;;;;;;15.76;21.03;100528.19;5070649;28;20056;-71
2021/01/17 09:22:55;;;;;;;11.93;9.43;;;;;;;15.21;21.19;100536.84;5053894;28;20102;-71
2021/01/17 09:25:22;;;;;;;13.85;9.48;;;;;;;15.57;21.00;100538.53;5048046;28;20058;-71
2021/01/17 09:27:50;;;;;;;12.95;9.30;;;;;;;14.52;22.41;100540.31;5070448;28;20044;-71
2021/01/17 09:30:16;;;;;;;13.77;9.43;;;;;;;13.18;24.18;100547.56;5037720;28;20139;-72
2021/01/17 09:32:43;;;;;;;12.38;9.32;;;;;;;14.28;22.85;100547.56;5070532;28;20052;-72
2021/01/17 09:35:10;;;;;;;15.48;10.40;;;;;;;13.69;23.75;100549.16;5070449;28;20045;-71
2021/01/17 09:37:36;;;;;;;12.95;9.63;;;;;;;15.03;22.01;100545.16;5067204;28;20054;-71
2021/01/17 09:40:03;;;;;;;13.85;9.57;;;;;;;12.62;24.85;100553.91;5070043;28;20048;-71
2021/01/17 09:42:30;;;;;;;15.80;10.68;;;;;;;13.03;24.55;100558.84;5071378;28;20409;-71
2021/01/17 09:45:00;;;;;;;12.35;9.80;;;;;;;12.91;24.68;100563.34;5070393;28;20089;-72
2021/01/17 09:47:28;;;;;;;22.45;9.82;;;;;;;13.63;23.80;100559.13;5065821;28;20073;-71
2021/01/17 09:49:56;;;;;;;;;;;;;;;12.63;24.61;100568.41;5049567;28;20041;-71
2021/01/17 09:52:24;;;;;;;15.98;10.35;;;;;;;12.58;24.99;100562.75;5036868;28;20018;-72
2021/01/17 09:54:53;;;;;;;25.48;10.10;;;;;;;13.17;24.73;100567.78;5042169;28;20465;-71
2021/01/17 09:57:20;;;;;;;;;;;;;;;13.70;23.40;100559.06;5071389;28;20567;-72
2021/01/17 09:59:49;;;;;;;14.77;9.63;;;;;;;13.12;24.35;100567.63;5070094;28;19920;-71
2021/01/17 10:02:23;;;;;;;13.50;9.95;;;;;;;13.23;24.26;100566.91;5070037;28;20037;-72
2021/01/17 10:04:51;;;;;;;13.18;10.25;;;;;;;13.01;24.75;100571.06;5069979;28;20060;-72
2021/01/17 10:07:20;;;;;;;13.60;9.73;;;;;;;13.36;24.17;100572.25;5040112;28;20056;-71
2021/01/17 10:09:48;;;;;;;13.43;9.75;;;;;;;12.15;25.41;100574.38;5069822;28;20124;-71
2021/01/17 10:12:20;;;;;;;12.77;9.77;;;;;;;12.25;25.78;100572.00;5070145;28;20048;-71
2021/01/17 10:14:47;;;;;;;19.75;10.52;;;;;;;12.34;25.65;100572.59;5053831;28;20068;-71
2021/01/17 10:17:13;;;;;;;14.45;9.20;;;;;;;13.83;23.33;100567.13;5069890;28;20567;-71
2021/01/17 10:19:40;;;;;;;11.77;8.50;;;;;;;12.93;24.53;100574.06;5070989;28;20070;-71
2021/01/17 10:22:11;;;;;;;15.23;8.90;;;;;;;12.28;24.78;100573.47;5069340;28;20041;-71
2021/01/17 10:24:37;;;;;;;13.85;9.68;;;;;;;10.80;27.35;100580.47;5063832;28;20045;-70
2021/01/17 10:27:06;;;;;;;20.05;10.27;;;;;;;11.30;27.01;100581.75;5070572;28;20506;-71
2021/01/17 10:29:35;;;;;;;15.20;9.75;;;;;;;10.45;28.19;100582.53;5052866;28;20427;-71
2021/01/17 10:32:12;;;;;;;18.35;9.88;;;;;;;10.42;28.43;100580.22;5069461;28;20127;-70
2021/01/17 10:34:40;;;;;;;16.83;9.52;;;;;;;12.75;25.23;100574.88;5085949;28;20445;-71
2021/01/17 10:37:11;;;;;;;32.20;10.85;;;;;;;14.04;24.08;100569.38;5081582;28;20053;-71
2021/01/17 10:39:53;;;;;;;16.08;10.18;;;;;;;14.52;23.00;100565.81;5039021;28;20055;-71
2021/01/17 10:42:27;;;;;;;12.35;8.90;;;;;;;14.61;22.89;100569.88;5069323;28;20067;-71
2021/01/17 10:44:59;;;;;;;19.27;10.27;;;;;;;12.79;24.66;100578.84;5069164;28;20049;-71
2021/01/17 10:47:34;;;;;;;12.23;9.57;;;;;;;12.28;25.27;100573.47;5052465;28;20049;-72
2021/01/17 10:50:06;;;;;;;11.27;8.63;;;;;;;11.69;26.06;100574.53;5069069;28;20045;-71
2021/01/17 10:52:34;;;;;;;14.13;8.65;;;;;;;10.82;26.89;100581.13;5052617;28;20087;-71
2021/01/17 10:55:04;;;;;;;13.25;9.23;;;;;;;10.46;27.97;100577.91;5068913;28;20128;-71
2021/01/17 10:57:33;;;;;;;13.05;8.85;;;;;;;9.91;28.90;100588.81;5052833;28;20433;-71
2021/01/17 11:00:04;;;;;;;13.30;9.25;;;;;;;10.11;28.81;100588.03;5052752;28;20083;-71
2021/01/17 11:02:31;;;;;;;13.82;9.38;;;;;;;11.35;26.85;100581.94;5070222;28;20498;-71
2021/01/17 11:04:57;;;;;;;12.40;8.90;;;;;;;11.33;26.65;100575.88;5069227;28;20453;-70
2021/01/17 11:07:28;;;;;;;15.27;9.90;;;;;;;11.04;26.48;100581.78;5057230;28;20063;-72
2021/01/17 11:09:55;;;;;;;15.63;9.57;;;;;;;12.29;26.46;100575.97;5069583;28;20106;-71
2021/01/17 11:12:35;;;;;;;16.85;10.30;;;;;;;13.09;24.43;100576.28;5036583;28;20106;-71
2021/01/17 11:15:16;;;;;;;14.68;10.15;;;;;;;12.59;25.23;100578.94;5071265;28;20097;-70
2021/01/17 11:17:58;;;;;;;16.33;10.50;;;;;;;12.61;24.46;100574.09;5073157;28;20048;-72
2021/01/17 11:20:27;;;;;;;13.43;8.98;;;;;;;13.19;24.66;100576.63;5040062;28;20060;-71
2021/01/17 11:23:04;;;;;;;13.02;7.80;;;;;;;13.39;23.29;100566.34;5089559;28;20433;-71
2021/01/17 11:25:32;;;;;;;13.13;7.53;;;;;;;11.21;25.35;100572.09;5050270;28;20059;-70
2021/01/17 11:28:00;;;;;;;8.15;6.30;;;;;;;11.24;25.33;100582.59;5056459;28;20047;-72
2021/01/17 11:30:28;;;;;;;11.20;7.80;;;;;;;10.44;26.66;100578.13;5056883;28;20411;-71
2021/01/17 11:33:10;;;;;;;11.07;7.10;;;;;;;9.36;28.01;100579.72;5072563;28;20127;-71